.
WxDataArchive / Data Records for 2006-04-08
2006-04-07 April 2006 2006-04-09

Data Records for Saturday, 08 April 2006

Time	Temp	Chill	HIndex	Humid	Dewpt	 Wind 	HiWind	WindDir	Rain 	Barom 
-----	----	-----	------	-----	-----	------	------	-------	-----	----- 
00:00	39.5	39.5	39.5	73	31.6	3	10	22	0.00	29.821 
00:05	39.3	39.3	39.3	74	31.7	2	6	22	0.00	29.821 
00:10	39.3	39.3	39.3	73	31.4	3	8	112	0.00	29.821 
00:15	39.1	39.1	39.1	71	30.5	2	11	45	0.00	29.828 
00:20	39.1	39.1	39.1	71	30.5	3	7	68	0.00	29.828 
00:25	38.9	36.0	38.9	70	30.0	4	10	112	0.00	29.828 
00:30	38.8	35.9	38.8	69	29.5	4	11	90	0.00	29.820 
00:35	38.8	38.8	38.8	69	29.5	2	7	45	0.00	29.820 
00:40	38.8	38.8	38.8	67	28.8	3	7	112	0.00	29.820 
00:45	38.8	38.8	38.8	69	29.5	3	6	90	0.00	29.827 
00:50	38.8	38.8	38.8	68	29.2	3	6	45	0.00	29.827 
00:55	38.8	38.8	38.8	69	29.5	2	4	45	0.00	29.827 
01:00	38.6	38.6	38.6	69	29.3	3	7	90	0.00	29.819 
01:05	38.6	38.6	38.6	67	28.6	3	7	90	0.00	29.819 
01:10	38.6	35.7	38.6	64	27.5	4	16	45	0.00	29.819 
01:15	38.6	34.8	38.6	63	27.1	5	16	45	0.00	29.820 
01:20	38.6	35.7	38.6	64	27.5	4	10	45	0.00	29.820 
01:25	38.5	38.5	38.5	66	28.1	2	7	22	0.00	29.820 
01:30	38.5	38.5	38.5	67	28.5	1	4	90	0.00	29.822 
01:35	38.5	38.5	38.5	67	28.5	2	6	45	0.00	29.822 
01:40	38.5	38.5	38.5	65	27.8	2	6	112	0.00	29.822 
01:45	38.5	38.5	38.5	65	27.8	2	5	68	0.00	29.830 
01:50	38.5	38.5	38.5	65	27.8	2	6	112	0.00	29.830 
01:55	38.5	38.5	38.5	64	27.4	1	4	112	0.00	29.830 
02:00	38.3	38.3	38.3	63	26.8	2	7	112	0.00	29.852 
02:05	38.5	38.5	38.5	63	27.0	2	10	45	0.00	29.852 
02:10	38.5	38.5	38.5	62	26.6	2	6	135	0.00	29.852 
02:15	38.3	38.3	38.3	62	26.4	2	9	112	0.00	29.876 
02:20	38.3	38.3	38.3	63	26.8	1	4	45	0.00	29.876 
02:25	38.2	38.2	38.2	62	26.3	2	6	135	0.00	29.876 
02:30	37.9	37.9	37.9	62	26.1	2	6	45	0.00	29.866 
02:35	37.8	37.8	37.8	62	26.0	2	7	90	0.00	29.866 
02:40	37.6	37.6	37.6	62	25.8	2	5	90	0.00	29.866 
02:45	37.6	37.6	37.6	62	25.8	3	7	68	0.00	29.861 
02:50	37.6	37.6	37.6	61	25.4	2	7	68	0.00	29.861 
02:55	37.5	37.5	37.5	60	24.9	3	9	68	0.00	29.861 
03:00	37.3	37.3	37.3	60	24.7	3	10	45	0.00	29.849 
03:05	37.0	32.9	37.0	60	24.4	5	12	68	0.00	29.849 
03:10	36.9	36.9	36.9	61	24.7	3	9	45	0.00	29.849 
03:15	36.6	36.6	36.6	61	24.4	2	7	68	0.00	29.861 
03:20	36.3	36.3	36.3	62	24.5	3	9	112	0.00	29.861 
03:25	36.0	36.0	36.0	62	24.3	2	7	45	0.00	29.861 
03:30	35.9	35.9	35.9	63	24.5	2	10	68	0.00	29.860 
03:35	35.6	35.6	35.6	63	24.3	3	5	68	0.00	29.860 
03:40	35.6	35.6	35.6	63	24.3	3	10	90	0.00	29.860 
03:45	35.5	35.5	35.5	63	24.2	2	6	112	0.00	29.879 
03:50	35.3	35.3	35.3	64	24.4	1	5	45	0.00	29.879 
03:55	35.0	35.0	35.0	63	23.7	2	5	90	0.00	29.879 
04:00	35.0	35.0	35.0	63	23.7	2	6	112	0.00	29.882 
04:05	34.9	34.9	34.9	63	23.6	2	6	112	0.00	29.882 
04:10	34.7	34.7	34.7	64	23.8	2	9	135	0.00	29.882 
04:15	34.6	34.6	34.6	64	23.7	2	6	112	0.00	29.891 
04:20	34.6	34.6	34.6	65	24.1	2	5	112	0.00	29.891 
04:25	34.4	34.4	34.4	66	24.2	1	3	112	0.00	29.891 
04:30	34.1	34.1	34.1	66	23.9	1	4	112	0.00	29.882 
04:35	34.1	34.1	34.1	66	23.9	2	7	112	0.00	29.882 
04:40	34.0	34.0	34.0	67	24.2	1	4	45	0.00	29.882 
04:45	33.7	33.7	33.7	67	23.9	1	2	0	0.00	29.892 
04:50	33.7	33.7	33.7	67	23.9	1	6	22	0.00	29.892 
04:55	33.5	33.5	33.5	67	23.7	1	5	68	0.00	29.892 
05:00	33.5	33.5	33.5	67	23.7	1	4	45	0.00	29.896 
05:05	33.4	33.4	33.4	68	24.0	1	3	90	0.00	29.896 
05:10	33.4	33.4	33.4	68	24.0	1	4	90	0.00	29.896 
05:15	33.2	33.2	33.2	68	23.8	1	7	0	0.00	29.903 
05:20	33.1	33.1	33.1	69	24.1	1	4	135	0.00	29.903 
05:25	33.1	33.1	33.1	69	24.1	1	2	45	0.00	29.903 
05:30	32.9	32.9	32.9	70	24.2	0	2	0	0.00	29.906 
05:35	32.8	32.8	32.8	70	24.1	0	2	22	0.00	29.906 
05:40	32.7	32.7	32.7	71	24.4	0	2	45	0.00	29.906 
05:45	32.5	32.5	32.5	72	24.5	0	1	45	0.00	29.931 
05:50	32.4	32.4	32.4	72	24.4	0	4	68	0.00	29.931 
05:55	32.2	32.2	32.2	73	24.5	0	2	68	0.00	29.931 
06:00	32.1	32.1	32.1	73	24.4	1	3	68	0.00	29.930 
06:05	32.1	32.1	32.1	74	24.8	1	5	112	0.00	29.930 
06:10	32.1	32.1	32.1	75	25.1	0	1	68	0.00	29.930 
06:15	31.9	31.9	31.9	76	25.2	0	2	22	0.00	29.929 
06:20	32.1	32.1	32.1	77	25.7	0	2	0	0.00	29.929 
06:25	32.1	32.1	32.1	77	25.7	1	4	90	0.00	29.929 
06:30	32.1	32.1	32.1	78	26.0	1	3	22	0.00	29.936 
06:35	32.1	32.1	32.1	78	26.0	1	5	45	0.00	29.936 
06:40	32.2	32.2	32.2	79	26.4	1	5	338	0.00	29.936 
06:45	32.1	32.1	32.1	79	26.3	1	2	0	0.00	29.948 
06:50	32.1	32.1	32.1	79	26.3	1	3	112	0.00	29.948 
06:55	32.1	32.1	32.1	78	26.0	1	5	338	0.00	29.948 
07:00	31.9	31.9	31.9	78	25.8	1	2	338	0.00	29.966 
07:05	31.9	31.9	31.9	79	26.1	0	1	338	0.00	29.966 
07:10	31.8	31.8	31.8	79	26.0	0	4	338	0.00	29.966 
07:15	31.8	31.8	31.8	79	26.0	1	3	45	0.00	29.985 
07:20	31.8	31.8	31.8	79	26.0	1	2	22	0.00	29.985 
07:25	31.8	31.8	31.8	78	25.7	0	2	22	0.00	29.985 
07:30	31.8	31.8	31.8	78	25.7	0	2	45	0.00	29.990 
07:35	31.8	31.8	31.8	79	26.0	0	2	0	0.00	29.990 
07:40	31.8	31.8	31.8	79	26.0	0	1	0	0.00	29.990 
07:45	31.9	31.9	31.9	78	25.8	0	5	0	0.00	29.986 
07:50	32.1	32.1	32.1	77	25.7	1	5	45	0.00	29.986 
07:55	32.4	32.4	32.4	77	26.0	1	3	22	0.00	29.986 
08:00	32.7	32.7	32.7	76	26.0	2	6	0	0.00	29.993 
08:05	32.9	32.9	32.9	76	26.2	1	6	22	0.00	29.993 
08:10	33.1	33.1	33.1	76	26.4	1	3	0	0.00	29.993 
08:15	33.2	33.2	33.2	75	26.2	2	4	22	0.00	30.006 
08:20	33.5	33.5	33.5	74	26.1	1	4	45	0.00	30.006 
08:25	33.7	33.7	33.7	73	26.0	2	5	45	0.00	30.006 
08:30	34.0	34.0	34.0	73	26.3	1	4	45	0.00	30.016 
08:35	34.0	34.0	34.0	72	25.9	2	6	22	0.00	30.016 
08:40	34.0	34.0	34.0	72	25.9	1	4	315	0.00	30.016 
08:45	34.3	34.3	34.3	71	25.9	1	6	315	0.00	30.029 
08:50	34.3	34.3	34.3	70	25.5	2	5	22	0.00	30.029 
08:55	34.6	34.6	34.6	70	25.8	2	5	338	0.00	30.029 
09:00	34.9	34.9	34.9	68	25.4	2	7	338	0.00	30.034 
09:05	34.9	34.9	34.9	69	25.8	2	9	22	0.00	30.034 
09:10	35.2	35.2	35.2	68	25.7	3	6	68	0.00	30.034 
09:15	35.8	35.8	35.8	67	25.9	2	4	90	0.00	30.040 
09:20	36.0	36.0	36.0	64	25.0	3	6	45	0.00	30.040 
09:25	35.9	35.9	35.9	63	24.5	2	4	22	0.00	30.040 
09:30	36.0	36.0	36.0	63	24.6	3	6	45	0.00	30.050 
09:35	36.3	36.3	36.3	64	25.3	3	7	68	0.00	30.050 
09:40	36.5	36.5	36.5	62	24.7	2	6	68	0.00	30.050 
09:45	36.8	36.8	36.8	63	25.4	3	9	22	0.00	30.050 
09:50	36.8	36.8	36.8	62	25.0	2	9	68	0.00	30.050 
09:55	36.9	36.9	36.9	63	25.5	2	7	90	0.00	30.050 
10:00	36.8	36.8	36.8	61	24.6	3	6	68	0.00	30.063 
10:05	36.9	36.9	36.9	61	24.7	2	6	22	0.00	30.063 
10:10	36.9	36.9	36.9	61	24.7	2	9	22	0.00	30.063 
10:15	37.5	37.5	37.5	58	24.1	3	6	45	0.00	30.066 
10:20	38.0	35.0	38.0	61	25.8	4	10	112	0.00	30.066 
10:25	37.8	37.8	37.8	59	24.8	3	9	22	0.00	30.066 
10:30	38.2	38.2	38.2	57	24.3	2	6	338	0.00	30.066 
10:35	38.0	38.0	38.0	56	23.7	2	5	338	0.00	30.066 
10:40	37.5	37.5	37.5	56	23.2	2	9	22	0.00	30.066 
10:45	37.0	37.0	37.0	57	23.2	2	7	45	0.00	30.075 
10:50	37.5	37.5	37.5	56	23.2	2	7	22	0.00	30.075 
10:55	38.2	38.2	38.2	56	23.9	3	9	68	0.00	30.075 
11:00	39.2	39.2	39.2	56	24.8	3	11	45	0.00	30.076 
11:05	39.2	39.2	39.2	54	24.0	3	9	22	0.00	30.076 
11:10	40.1	40.1	40.1	56	25.7	2	10	45	0.00	30.076 
11:15	40.9	40.9	40.9	55	26.0	3	10	90	0.00	30.077 
11:20	40.8	40.8	40.8	52	24.6	3	11	68	0.00	30.077 
11:25	40.6	40.6	40.6	52	24.4	2	7	45	0.00	30.077 
11:30	40.2	37.5	40.2	50	23.1	4	13	0	0.00	30.078 
11:35	40.1	40.1	40.1	54	24.8	2	6	22	0.00	30.078 
11:40	40.3	40.3	40.3	52	24.1	3	9	22	0.00	30.078 
11:45	40.3	40.3	40.3	51	23.6	2	7	22	0.00	30.080 
11:50	40.2	40.2	40.2	54	24.9	2	5	22	0.00	30.080 
11:55	40.9	40.9	40.9	50	23.7	2	5	45	0.00	30.080 
12:00	41.2	41.2	41.2	50	24.0	3	10	22	0.00	30.079 
12:05	41.5	41.5	41.5	51	24.7	3	6	90	0.00	30.079 
12:10	42.1	42.1	42.1	51	25.3	2	4	0	0.00	30.079 
12:15	41.9	41.9	41.9	52	25.6	3	8	22	0.00	30.079 
12:20	42.2	42.2	42.2	49	24.4	3	8	45	0.00	30.079 
12:25	42.1	42.1	42.1	50	24.8	2	8	338	0.00	30.079 
12:30	42.2	42.2	42.2	51	25.4	3	8	0	0.00	30.083 
12:35	42.3	42.3	42.3	51	25.5	2	5	22	0.00	30.083 
12:40	42.6	42.6	42.6	51	25.8	2	5	45	0.00	30.083 
12:45	42.8	42.8	42.8	46	23.5	2	6	338	0.00	30.082 
12:50	42.3	42.3	42.3	48	24.0	2	7	22	0.00	30.082 
12:55	42.9	42.9	42.9	49	25.1	2	7	292	0.00	30.082 
13:00	43.2	43.2	43.2	48	24.9	2	5	22	0.00	30.085 
13:05	43.2	43.2	43.2	51	26.3	1	4	22	0.00	30.085 
13:10	43.5	43.5	43.5	47	24.6	2	6	22	0.00	30.085 
13:15	43.9	43.9	43.9	50	26.5	3	7	45	0.00	30.078 
13:20	43.8	43.8	43.8	47	24.9	2	6	0	0.00	30.078 
13:25	43.9	43.9	43.9	48	25.5	2	4	22	0.00	30.078 
13:30	44.1	44.1	44.1	43	23.0	3	5	22	0.00	30.082 
13:35	44.2	44.2	44.2	48	25.8	1	4	22	0.00	30.082 
13:40	44.8	44.8	44.8	44	24.2	3	9	22	0.00	30.082 
13:45	44.9	44.9	44.9	45	24.9	2	7	22	0.00	30.077 
13:50	44.6	44.6	44.6	41	22.4	2	4	45	0.00	30.077 
13:55	44.8	44.8	44.8	45	24.8	1	4	338	0.00	30.077 
14:00	44.9	44.9	44.9	43	23.8	2	5	0	0.00	30.078 
14:05	45.4	45.4	45.4	48	26.9	2	11	22	0.00	30.078 
14:10	45.7	45.7	45.7	42	23.9	2	9	22	0.00	30.078 
14:15	45.8	45.8	45.8	43	24.6	2	7	90	0.00	30.080 
14:20	45.8	45.8	45.8	41	23.5	2	5	112	0.00	30.080 
14:25	45.8	45.8	45.8	44	25.1	2	5	338	0.00	30.080 
14:30	46.2	46.2	46.2	47	27.1	2	7	90	0.00	30.081 
14:35	46.5	46.5	46.5	39	22.9	2	6	22	0.00	30.081 
14:40	46.2	46.2	46.2	42	24.4	1	6	68	0.00	30.081 
14:45	46.4	46.4	46.4	38	22.2	2	6	45	0.00	30.082 
14:50	46.5	46.5	46.5	42	24.7	2	7	68	0.00	30.082 
14:55	46.7	46.7	46.7	39	23.1	2	4	22	0.00	30.082 
15:00	46.8	46.8	46.8	43	25.5	2	5	338	0.00	30.081 
15:05	47.0	47.0	47.0	39	23.3	2	10	45	0.00	30.081 
15:10	47.1	47.1	47.1	39	23.4	2	7	22	0.00	30.081 
15:15	47.0	47.0	47.0	40	23.9	3	9	45	0.00	30.087 
15:20	47.0	47.0	47.0	43	25.7	2	6	68	0.00	30.087 
15:25	46.8	46.8	46.8	41	24.4	2	4	22	0.00	30.087 
15:30	46.7	46.7	46.7	39	23.1	1	5	0	0.00	30.080 
15:35	46.8	46.8	46.8	38	22.5	2	6	0	0.00	30.080 
15:40	47.1	47.1	47.1	45	26.9	2	5	68	0.00	30.080 
15:45	47.4	47.4	47.4	41	24.9	2	9	22	0.00	30.090 
15:50	47.4	47.4	47.4	37	22.5	2	5	45	0.00	30.090 
15:55	47.4	47.4	47.4	39	23.7	2	4	90	0.00	30.090 
16:00	47.6	47.6	47.6	39	23.9	1	3	0	0.00	30.088 
16:05	48.0	48.0	48.0	38	23.6	3	7	45	0.00	30.088 
16:10	48.0	48.0	48.0	37	23.0	2	6	45	0.00	30.088 
16:15	47.7	47.7	47.7	36	22.1	2	5	0	0.00	30.092 
16:20	47.6	47.6	47.6	41	25.1	1	5	45	0.00	30.092 
16:25	47.7	47.7	47.7	39	24.0	1	4	338	0.00	30.092 
16:30	47.9	47.9	47.9	38	23.5	1	3	22	0.00	30.092 
16:35	48.3	48.3	48.3	40	25.1	1	7	0	0.00	30.092 
16:40	47.9	47.9	47.9	35	21.6	2	5	338	0.00	30.092 
16:45	47.7	47.7	47.7	37	22.7	1	4	270	0.00	30.094 
16:50	48.2	48.2	48.2	37	23.2	1	4	45	0.00	30.094 
16:55	48.3	48.3	48.3	36	22.6	2	5	22	0.00	30.094 
17:00	48.3	48.3	48.3	38	23.9	1	3	22	0.00	30.100 
17:05	48.5	48.5	48.5	36	22.8	1	2	22	0.00	30.100 
17:10	48.5	48.5	48.5	36	22.8	2	6	22	0.00	30.100 
17:15	48.2	48.2	48.2	33	20.5	1	4	22	0.00	30.105 
17:20	47.9	47.9	47.9	38	23.5	2	5	0	0.00	30.105 
17:25	47.6	47.6	47.6	34	20.6	1	4	0	0.00	30.105 
17:30	47.6	47.6	47.6	34	20.6	2	6	45	0.00	30.106 
17:35	47.6	47.6	47.6	35	21.3	2	4	45	0.00	30.106 
17:40	47.6	47.6	47.6	38	23.3	1	4	22	0.00	30.106 
17:45	47.9	47.9	47.9	36	22.2	1	5	338	0.00	30.110 
17:50	48.0	48.0	48.0	37	23.0	2	6	22	0.00	30.110 
17:55	47.9	47.9	47.9	35	21.6	2	6	90	0.00	30.110 
18:00	47.9	47.9	47.9	38	23.5	1	5	45	0.00	30.111 
18:05	47.7	47.7	47.7	36	22.1	2	6	45	0.00	30.111 
18:10	47.6	47.6	47.6	37	22.6	2	5	68	0.00	30.111 
18:15	47.4	47.4	47.4	39	23.7	1	5	22	0.00	30.121 
18:20	47.3	47.3	47.3	38	23.0	1	3	22	0.00	30.121 
18:25	47.3	47.3	47.3	36	21.7	1	4	22	0.00	30.121 
18:30	47.3	47.3	47.3	35	21.0	1	4	0	0.00	30.125 
18:35	47.1	47.1	47.1	38	22.8	1	4	45	0.00	30.125 
18:40	47.0	47.0	47.0	37	22.1	1	4	90	0.00	30.125 
18:45	46.8	46.8	46.8	39	23.2	1	3	90	0.00	30.127 
18:50	46.8	46.8	46.8	37	21.9	1	3	22	0.00	30.127 
18:55	46.7	46.7	46.7	39	23.1	1	3	45	0.00	30.127 
19:00	46.4	46.4	46.4	38	22.2	1	5	338	0.00	30.129 
19:05	46.2	46.2	46.2	38	22.0	1	4	45	0.00	30.129 
19:10	46.1	46.1	46.1	37	21.3	1	4	338	0.00	30.129 
19:15	46.0	46.0	46.0	39	22.4	1	2	0	0.00	30.134 
19:20	45.7	45.7	45.7	40	22.8	1	2	22	0.00	30.134 
19:25	45.4	45.4	45.4	40	22.5	0	3	22	0.00	30.134 
19:30	45.2	45.2	45.2	40	22.3	1	2	22	0.00	30.138 
19:35	45.1	45.1	45.1	38	21.0	1	3	0	0.00	30.138 
19:40	44.9	44.9	44.9	39	21.5	1	5	22	0.00	30.138 
19:45	44.8	44.8	44.8	39	21.4	1	4	22	0.00	30.144 
19:50	44.5	44.5	44.5	39	21.1	1	3	338	0.00	30.144 
19:55	44.2	44.2	44.2	40	21.4	0	2	0	0.00	30.144 
20:00	43.9	43.9	43.9	40	21.2	0	2	0	0.00	30.152 
20:05	43.8	43.8	43.8	41	21.7	0	2	0	0.00	30.152 
20:10	43.5	43.5	43.5	41	21.4	0	3	22	0.00	30.152 
20:15	43.2	43.2	43.2	42	21.7	0	2	22	0.00	30.154 
20:20	43.1	43.1	43.1	43	22.1	0	1	22	0.00	30.154 
20:25	42.8	42.8	42.8	44	22.4	0	0	---	0.00	30.154 
20:30	42.3	42.3	42.3	44	22.0	0	1	22	0.00	30.160 
20:35	41.9	41.9	41.9	45	22.1	0	0	---	0.00	30.160 
20:40	41.6	41.6	41.6	45	21.9	0	1	22	0.00	30.160 
20:45	41.5	41.5	41.5	46	22.3	0	0	---	0.00	30.161 
20:50	41.1	41.1	41.1	46	21.9	0	0	---	0.00	30.161 
20:55	40.8	40.8	40.8	47	22.1	0	0	---	0.00	30.161 
21:00	40.5	40.5	40.5	49	22.9	0	0	---	0.00	30.167 
21:05	40.1	40.1	40.1	50	23.0	0	0	---	0.00	30.167 
21:10	39.6	39.6	39.6	51	23.0	0	0	---	0.00	30.167 
21:15	39.3	39.3	39.3	52	23.2	0	0	---	0.00	30.176 
21:20	39.1	39.1	39.1	53	23.4	0	0	---	0.00	30.176 
21:25	38.9	38.9	38.9	54	23.7	0	0	---	0.00	30.176 
21:30	38.6	38.6	38.6	53	23.0	0	0	---	0.00	30.179 
21:35	38.5	38.5	38.5	54	23.3	0	0	---	0.00	30.179 
21:40	38.3	38.3	38.3	54	23.1	0	0	---	0.00	30.179 
21:45	38.0	38.0	38.0	54	22.9	0	0	---	0.00	30.186 
21:50	37.9	37.9	37.9	55	23.2	0	0	---	0.00	30.186 
21:55	37.6	37.6	37.6	56	23.3	0	0	---	0.00	30.186 
22:00	37.5	37.5	37.5	57	23.7	0	0	---	0.00	30.189 
22:05	37.2	37.2	37.2	57	23.4	0	0	---	0.00	30.189 
22:10	37.0	37.0	37.0	58	23.6	0	0	---	0.00	30.189 
22:15	36.9	36.9	36.9	57	23.1	0	0	---	0.00	30.187 
22:20	36.9	36.9	36.9	57	23.1	0	0	---	0.00	30.187 
22:25	36.9	36.9	36.9	57	23.1	0	0	---	0.00	30.187 
22:30	36.8	36.8	36.8	58	23.4	0	0	---	0.00	30.188 
22:35	36.8	36.8	36.8	58	23.4	0	0	---	0.00	30.188 
22:40	36.9	36.9	36.9	58	23.5	0	0	---	0.00	30.188 
22:45	36.9	36.9	36.9	58	23.5	0	1	22	0.00	30.192 
22:50	36.9	36.9	36.9	58	23.5	0	0	---	0.00	30.192 
22:55	37.0	37.0	37.0	58	23.6	0	1	22	0.00	30.192 
23:00	37.0	37.0	37.0	57	23.2	0	0	---	0.00	30.193 
23:05	37.0	37.0	37.0	58	23.6	0	0	---	0.00	30.193 
23:10	37.0	37.0	37.0	58	23.6	0	2	22	0.00	30.193 
23:15	37.0	37.0	37.0	58	23.6	0	2	22	0.00	30.191 
23:20	37.0	37.0	37.0	58	23.6	0	1	22	0.00	30.191 
23:25	36.9	36.9	36.9	58	23.5	0	1	22	0.00	30.191 
23:30	36.3	36.3	36.3	59	23.4	0	0	---	0.00	30.191 
23:35	35.9	35.9	35.9	60	23.4	0	0	---	0.00	30.191 
23:40	35.5	35.5	35.5	62	23.8	0	0	---	0.00	30.191 
23:45	35.0	35.0	35.0	63	23.7	0	0	---	0.00	30.193 
23:50	34.6	34.6	34.6	64	23.7	0	0	---	0.00	30.193 
23:55	34.3	34.3	34.3	66	24.1	0	0	---	0.00	30.193 

CoCoRaHS
IN-AL-39
A2 Web Hosting
Creative Commons License
GoDaddy
Look for:

loaded 2017-12-13 09:40:29 • last modified 2010-11-18 10:43:29
Privacy PolicyDisclaimer
• wx.awcolley.com is powered by PmWiki v.2002016 •
• all content (unless otherwise noted) © 2017 A W Colley